createdAt,value
2023-04-28T00:02:24.791Z,13.30
2023-04-28T00:04:52.884Z,11.80
2023-04-28T00:07:21.283Z,13.10
2023-04-28T00:09:49.110Z,11.60
2023-04-28T00:12:16.852Z,10.00
2023-04-28T00:14:44.771Z,13.40
2023-04-28T00:17:12.543Z,12.90
2023-04-28T00:19:40.497Z,15.30
2023-04-28T00:22:08.795Z,11.40
2023-04-28T00:24:37.257Z,14.50
2023-04-28T00:27:05.034Z,11.60
2023-04-28T00:29:32.930Z,12.20
2023-04-28T00:32:00.844Z,11.50
2023-04-28T00:34:30.085Z,12.10
2023-04-28T00:36:57.973Z,11.50
2023-04-28T00:39:27.790Z,10.00
2023-04-28T00:41:56.024Z,10.90
2023-04-28T00:44:23.865Z,11.90
2023-04-28T00:46:51.705Z,10.00
2023-04-28T00:49:19.590Z,11.20
2023-04-28T00:51:47.301Z,8.80
2023-04-28T00:54:15.343Z,13.00
2023-04-28T00:56:43.747Z,16.20
2023-04-28T00:59:11.592Z,12.60
2023-04-28T01:01:39.395Z,11.90
2023-04-28T01:04:07.689Z,12.40
2023-04-28T01:06:37.495Z,10.10
2023-04-28T01:09:07.534Z,10.70
2023-04-28T01:11:37.540Z,10.30
2023-04-28T01:14:09.577Z,10.70
2023-04-28T01:16:40.823Z,10.70
2023-04-28T01:19:17.331Z,12.30
2023-04-28T01:21:45.411Z,10.60
2023-04-28T01:24:19.097Z,9.90
2023-04-28T01:26:47.088Z,9.90
2023-04-28T01:29:14.868Z,10.20
2023-04-28T01:31:42.953Z,12.80
2023-04-28T01:34:11.298Z,10.60
2023-04-28T01:36:39.376Z,12.90
2023-04-28T01:39:07.649Z,12.30
2023-04-28T01:41:35.433Z,12.80
2023-04-28T01:44:06.279Z,11.70
2023-04-28T01:46:34.934Z,11.00
2023-04-28T01:49:02.849Z,11.90
2023-04-28T01:51:31.300Z,12.30
2023-04-28T01:53:59.058Z,13.70
2023-04-28T01:56:26.818Z,11.90
2023-04-28T01:58:56.144Z,12.40
2023-04-28T02:01:24.259Z,12.30
2023-04-28T02:03:52.412Z,13.10
2023-04-28T02:06:20.581Z,14.00
2023-04-28T02:08:48.428Z,12.90
2023-04-28T02:11:16.250Z,12.20
2023-04-28T02:13:44.107Z,16.60
2023-04-28T02:16:12.192Z,13.40
2023-04-28T02:18:40.574Z,12.40
2023-04-28T02:21:11.000Z,11.80
2023-04-28T02:23:40.083Z,12.60
2023-04-28T02:26:08.345Z,12.10
2023-04-28T02:28:36.174Z,12.20
2023-04-28T02:31:08.702Z,14.20
2023-04-28T02:33:37.749Z,11.50
2023-04-28T02:36:06.866Z,11.50
2023-04-28T02:38:34.973Z,11.70
2023-04-28T02:41:09.379Z,10.50
2023-04-28T02:43:37.701Z,8.90
2023-04-28T02:46:05.975Z,13.80
2023-04-28T02:48:35.814Z,12.00
2023-04-28T02:51:03.611Z,11.00
2023-04-28T02:53:32.001Z,11.30
2023-04-28T02:56:02.081Z,11.00
2023-04-28T02:58:30.227Z,10.80
2023-04-28T03:00:58.470Z,12.00
2023-04-28T03:03:26.897Z,14.80
2023-04-28T03:05:56.877Z,13.50
2023-04-28T03:08:24.732Z,12.10
2023-04-28T03:10:54.297Z,14.20
2023-04-28T03:13:22.064Z,11.60
2023-04-28T03:15:50.350Z,12.80
2023-04-28T03:18:18.842Z,15.00
2023-04-28T03:20:46.764Z,13.10
2023-04-28T03:23:14.584Z,10.40
2023-04-28T03:25:42.492Z,12.20
2023-04-28T03:28:10.807Z,10.30
2023-04-28T03:30:38.648Z,10.40
2023-04-28T03:33:06.993Z,12.20
2023-04-28T03:35:34.817Z,11.40
2023-04-28T03:38:03.044Z,14.30
2023-04-28T03:40:31.317Z,16.10
2023-04-28T03:43:19.108Z,28.70
2023-04-28T03:46:09.921Z,49.20
2023-04-28T03:48:37.953Z,44.50
2023-04-28T03:51:06.040Z,29.90
2023-04-28T03:53:33.913Z,26.00
2023-04-28T03:56:01.841Z,20.70
2023-04-28T03:58:29.709Z,14.80
2023-04-28T04:00:57.544Z,14.20
2023-04-28T04:03:27.165Z,15.40
2023-04-28T04:05:57.059Z,12.90
2023-04-28T04:08:25.498Z,17.70
2023-04-28T04:10:54.971Z,20.40
2023-04-28T04:13:23.142Z,13.40
2023-04-28T04:15:52.754Z,15.70
2023-04-28T04:18:21.418Z,17.10
2023-04-28T04:21:13.009Z,14.80
2023-04-28T04:23:41.247Z,19.40
2023-04-28T04:26:08.953Z,17.40
2023-04-28T04:28:37.152Z,18.20
2023-04-28T04:31:06.415Z,18.10
2023-04-28T04:33:34.761Z,18.30
2023-04-28T04:36:03.304Z,17.50
2023-04-28T04:38:31.550Z,16.00
2023-04-28T04:41:02.148Z,17.30
2023-04-28T04:43:30.167Z,18.80
2023-04-28T04:45:57.974Z,12.70
2023-04-28T04:48:25.964Z,14.30
2023-04-28T04:50:53.838Z,14.60
2023-04-28T04:53:21.626Z,17.20
2023-04-28T04:55:49.579Z,19.50
2023-04-28T04:58:17.974Z,20.10
2023-04-28T05:01:04.851Z,15.40
2023-04-28T05:03:33.279Z,17.50
2023-04-28T05:06:02.950Z,18.90
2023-04-28T05:08:36.296Z,17.40
2023-04-28T05:11:05.058Z,19.60
2023-04-28T05:13:32.800Z,16.40
2023-04-28T05:18:56.481Z,12.40
2023-04-28T05:21:24.302Z,9.80
2023-04-28T05:23:52.514Z,14.20
2023-04-28T05:26:20.818Z,9.70
2023-04-28T05:28:48.728Z,11.30
2023-04-28T05:31:16.574Z,12.60
2023-04-28T05:33:44.510Z,14.20
2023-04-28T05:36:13.103Z,15.30
2023-04-28T05:38:41.063Z,13.60
2023-04-28T05:41:08.928Z,9.90
2023-04-28T05:43:37.165Z,10.40
2023-04-28T05:46:09.752Z,29.70
2023-04-28T05:48:43.997Z,12.20
2023-04-28T05:51:12.000Z,12.50
2023-04-28T05:53:40.050Z,11.60
2023-04-28T05:56:08.388Z,12.30
2023-04-28T05:58:36.249Z,10.10
2023-04-28T06:01:05.114Z,7.00
2023-04-28T06:03:33.983Z,9.30
2023-04-28T06:06:03.073Z,6.50
2023-04-28T06:08:31.872Z,8.40
2023-04-28T06:10:59.643Z,7.10
2023-04-28T06:13:27.837Z,7.10
2023-04-28T06:15:56.007Z,11.10
2023-04-28T06:18:24.444Z,7.30
2023-04-28T06:20:52.244Z,9.10
2023-04-28T06:23:21.192Z,9.00
2023-04-28T06:25:50.201Z,8.60
2023-04-28T06:28:18.085Z,8.20
2023-04-28T06:30:46.408Z,7.10
2023-04-28T06:33:14.160Z,9.20
2023-04-28T06:35:42.135Z,7.20
2023-04-28T06:38:10.197Z,6.10
2023-04-28T06:40:38.258Z,7.40
2023-04-28T06:43:07.369Z,8.20
2023-04-28T06:46:01.632Z,6.90
2023-04-28T06:48:29.460Z,4.30
2023-04-28T06:50:57.214Z,5.20
2023-04-28T06:53:24.947Z,4.80
2023-04-28T06:55:53.022Z,4.90
2023-04-28T06:58:21.895Z,5.50
2023-04-28T07:00:49.689Z,4.60
2023-04-28T07:03:17.771Z,5.00
2023-04-28T07:05:46.297Z,6.10
2023-04-28T07:08:14.147Z,4.80
2023-04-28T07:10:42.289Z,5.20
2023-04-28T07:13:10.618Z,5.90
2023-04-28T07:15:38.778Z,5.40
2023-04-28T07:18:07.530Z,3.90
2023-04-28T07:20:35.516Z,3.60
2023-04-28T07:23:03.473Z,6.20
2023-04-28T07:25:32.121Z,4.40
2023-04-28T07:27:59.990Z,3.00
2023-04-28T07:30:28.429Z,4.00
2023-04-28T07:32:56.391Z,3.30
2023-04-28T07:49:04.786Z,4.90
2023-04-28T07:51:32.598Z,2.40
2023-04-28T07:54:00.584Z,2.80
2023-04-28T07:56:28.304Z,3.10
2023-04-28T07:58:57.131Z,2.80
2023-04-28T08:01:25.216Z,2.40
2023-04-28T08:03:53.171Z,2.00
2023-04-28T08:06:21.208Z,2.30
2023-04-28T08:08:49.289Z,2.20
2023-04-28T08:11:17.032Z,2.10
2023-04-28T08:13:44.785Z,3.70
2023-04-28T08:16:12.795Z,3.30
2023-04-28T08:18:40.942Z,1.70
2023-04-28T08:21:09.711Z,2.80
2023-04-28T08:23:37.546Z,1.90
2023-04-28T08:26:05.849Z,3.00
2023-04-28T08:28:34.097Z,2.10
2023-04-28T08:31:01.958Z,2.30
2023-04-28T08:33:29.712Z,2.30
2023-04-28T08:35:57.745Z,2.70
2023-04-28T08:38:26.619Z,2.90
2023-04-28T08:40:54.411Z,1.60
2023-04-28T08:43:22.495Z,1.60
2023-04-28T08:45:50.308Z,2.30
2023-04-28T08:48:23.326Z,2.10
2023-04-28T08:50:53.487Z,3.00
2023-04-28T08:53:26.911Z,2.90
2023-04-28T08:55:56.977Z,5.90
2023-04-28T08:58:26.491Z,2.40
2023-04-28T09:00:54.721Z,3.20
2023-04-28T09:03:22.728Z,2.80
2023-04-28T09:05:50.925Z,3.30
2023-04-28T09:08:19.164Z,4.00
2023-04-28T09:10:47.086Z,2.40
2023-04-28T09:13:33.468Z,2.10
2023-04-28T09:16:03.216Z,1.80
2023-04-28T09:18:34.608Z,1.40
2023-04-28T09:21:08.359Z,3.00
2023-04-28T09:23:49.355Z,1.90
2023-04-28T09:26:17.177Z,3.40
2023-04-28T09:28:44.866Z,3.10
2023-04-28T09:31:25.174Z,2.70
2023-04-28T09:34:00.309Z,5.20
2023-04-28T09:36:30.996Z,2.30
2023-04-28T09:39:00.313Z,5.00
2023-04-28T09:41:42.794Z,3.50
2023-04-28T09:44:11.876Z,3.50
2023-04-28T09:46:40.347Z,2.90
2023-04-28T09:49:08.809Z,1.70
2023-04-28T09:51:36.893Z,2.80
2023-04-28T09:54:05.074Z,3.00
2023-04-28T09:56:35.004Z,2.40
2023-04-28T09:59:02.924Z,2.10
2023-04-28T10:01:39.020Z,3.10
2023-04-28T10:04:09.783Z,2.10
2023-04-28T10:06:38.093Z,5.80
2023-04-28T10:09:06.807Z,1.60
2023-04-28T10:11:35.337Z,2.90
2023-04-28T10:14:03.287Z,3.40
2023-04-28T10:16:33.280Z,3.20
2023-04-28T10:19:03.353Z,4.00
2023-04-28T10:21:35.764Z,2.90
2023-04-28T10:24:15.076Z,2.40
2023-04-28T10:27:02.081Z,2.80
2023-04-28T10:29:32.527Z,2.90
2023-04-28T10:32:24.111Z,2.20
2023-04-28T10:34:52.595Z,4.00
2023-04-28T10:37:20.965Z,4.70
2023-04-28T10:40:34.649Z,3.30
2023-04-28T10:43:03.468Z,4.60
2023-04-28T10:45:56.258Z,4.10
2023-04-28T10:48:33.879Z,6.40
2023-04-28T10:51:07.924Z,3.40
2023-04-28T10:53:54.269Z,3.60
2023-04-28T10:56:27.155Z,4.60
2023-04-28T10:58:56.080Z,5.50
2023-04-28T11:01:29.753Z,3.70
2023-04-28T11:04:03.637Z,5.50
2023-04-28T11:06:35.940Z,2.80
2023-04-28T11:09:32.932Z,5.40
2023-04-28T11:12:00.835Z,4.60
2023-04-28T11:14:29.997Z,2.80
2023-04-28T11:19:43.862Z,4.40
2023-04-28T11:22:20.617Z,3.30
2023-04-28T11:25:01.919Z,2.70
2023-04-28T11:27:31.421Z,5.50
2023-04-28T11:30:00.218Z,3.30
2023-04-28T11:32:30.791Z,5.30
2023-04-28T11:34:58.646Z,3.60
2023-04-28T11:37:27.228Z,3.70
2023-04-28T11:39:55.146Z,5.70
2023-04-28T11:42:26.248Z,5.40
2023-04-28T11:44:55.035Z,5.40
2023-04-28T11:47:31.438Z,4.00
2023-04-28T11:49:59.395Z,5.30
2023-04-28T11:52:27.643Z,2.50
2023-04-28T11:55:03.036Z,4.70
2023-04-28T11:57:30.871Z,5.30
2023-04-28T12:00:22.131Z,6.50
2023-04-28T12:02:50.882Z,4.10
2023-04-28T12:05:22.169Z,4.20
2023-04-28T12:07:50.384Z,5.70
2023-04-28T12:10:19.799Z,5.40
2023-04-28T12:12:52.826Z,6.70
2023-04-28T12:15:22.693Z,3.70
2023-04-28T12:17:51.609Z,5.70
2023-04-28T12:20:39.357Z,4.80
2023-04-28T12:23:08.534Z,5.10
2023-04-28T12:28:14.064Z,4.90
2023-04-28T12:30:42.804Z,5.00
2023-04-28T12:33:24.682Z,6.30
2023-04-28T12:35:57.891Z,4.50
2023-04-28T12:38:27.224Z,3.80
2023-04-28T12:43:24.184Z,4.50
2023-04-28T12:45:56.567Z,6.60
2023-04-28T12:48:25.183Z,4.10
2023-04-28T12:50:53.092Z,4.40
2023-04-28T12:53:20.947Z,4.40
2023-04-28T12:55:48.903Z,4.40
2023-04-28T12:58:17.935Z,3.70
2023-04-28T13:03:13.613Z,6.70
2023-04-28T13:05:41.481Z,8.40
2023-04-28T13:08:09.597Z,5.50
2023-04-28T13:10:37.396Z,7.20
2023-04-28T13:13:05.608Z,3.80
2023-04-28T13:15:33.417Z,6.20
2023-04-28T13:18:01.188Z,6.00
2023-04-28T13:20:29.019Z,4.10
2023-04-28T13:22:56.737Z,5.00
2023-04-28T13:25:25.192Z,4.60
2023-04-28T13:27:52.976Z,9.20
2023-04-28T13:30:20.894Z,4.10
2023-04-28T13:32:49.444Z,4.40
2023-04-28T13:35:17.848Z,5.30
2023-04-28T13:37:46.222Z,5.00
2023-04-28T13:40:13.988Z,5.70
2023-04-28T13:42:41.759Z,3.50
2023-04-28T13:45:09.971Z,5.00
2023-04-28T13:47:38.140Z,7.10
2023-04-28T13:50:06.651Z,4.00
2023-04-28T13:52:34.474Z,4.60
2023-04-28T13:55:02.341Z,5.20
2023-04-28T13:57:30.520Z,5.40
2023-04-28T13:59:58.328Z,4.60
2023-04-28T14:02:27.456Z,5.70
2023-04-28T14:04:55.951Z,5.60
2023-04-28T14:07:23.823Z,4.60
2023-04-28T14:09:51.692Z,3.70
2023-04-28T14:12:19.406Z,6.30
2023-04-28T14:14:49.576Z,5.30
2023-04-28T14:17:17.640Z,6.90
2023-04-28T14:19:45.905Z,5.00
2023-04-28T14:22:13.625Z,4.50
2023-04-28T14:24:43.084Z,5.30
2023-04-28T14:27:11.118Z,4.30
2023-04-28T14:29:39.094Z,5.20
2023-04-28T14:32:07.255Z,5.70
2023-04-28T14:34:34.978Z,4.00
2023-04-28T14:37:02.795Z,4.30
2023-04-28T14:39:30.630Z,5.50
2023-04-28T14:41:58.375Z,4.50
2023-04-28T14:44:26.092Z,4.90
2023-04-28T14:46:54.357Z,4.70
2023-04-28T14:49:23.061Z,5.60
2023-04-28T14:51:50.893Z,6.00
2023-04-28T14:54:18.923Z,4.50
2023-04-28T14:56:46.607Z,5.90
2023-04-28T14:59:14.395Z,6.40
2023-04-28T15:01:42.539Z,4.70
2023-04-28T15:04:10.410Z,5.90
2023-04-28T15:06:38.269Z,7.80
2023-04-28T15:09:06.239Z,4.00
2023-04-28T15:11:34.187Z,5.50
2023-04-28T15:14:01.976Z,4.90
2023-04-28T15:16:29.804Z,6.00
2023-04-28T15:18:58.117Z,6.60
2023-04-28T15:21:26.314Z,5.30
2023-04-28T15:23:54.498Z,4.50
2023-04-28T15:26:23.625Z,6.20
2023-04-28T15:28:51.415Z,4.20
2023-04-28T15:31:19.507Z,4.80
2023-04-28T15:33:47.718Z,8.30
2023-04-28T15:36:15.606Z,8.00
2023-04-28T15:38:45.450Z,6.40
2023-04-28T15:41:15.082Z,5.10
2023-04-28T15:43:44.485Z,4.20
2023-04-28T15:46:14.931Z,3.70
2023-04-28T15:48:43.798Z,5.50
2023-04-28T15:51:11.739Z,6.40
2023-04-28T15:53:40.024Z,4.60
2023-04-28T15:56:08.290Z,4.00
2023-04-28T15:58:36.493Z,4.70
2023-04-28T16:01:05.137Z,4.70
2023-04-28T16:03:33.035Z,4.90
2023-04-28T16:06:01.210Z,4.30
2023-04-28T16:08:29.376Z,3.40
2023-04-28T16:10:57.371Z,4.10
2023-04-28T16:13:25.136Z,4.80
2023-04-28T16:15:53.227Z,5.80
2023-04-28T16:18:21.149Z,4.90
2023-04-28T16:20:49.167Z,5.00
2023-04-28T16:23:16.922Z,5.70
2023-04-28T16:25:44.861Z,5.80
2023-04-28T16:28:12.617Z,5.80
2023-04-28T16:30:41.144Z,6.20
2023-04-28T16:33:09.095Z,6.60
2023-04-28T16:35:36.901Z,3.30
2023-04-28T16:38:05.233Z,6.90
2023-04-28T16:40:32.998Z,4.50
2023-04-28T16:43:00.844Z,5.90
2023-04-28T16:45:29.265Z,4.60
2023-04-28T16:47:57.388Z,6.00
2023-04-28T16:50:25.138Z,4.70
2023-04-28T16:52:52.960Z,4.90
2023-04-28T16:55:20.792Z,5.70
2023-04-28T16:57:48.863Z,4.80
2023-04-28T17:00:17.370Z,3.70
2023-04-28T17:02:45.236Z,5.50
2023-04-28T17:05:13.301Z,7.90
2023-04-28T17:07:41.313Z,5.80
2023-04-28T17:10:09.659Z,5.70
2023-04-28T17:12:37.588Z,4.40
2023-04-28T17:15:09.505Z,3.70
2023-04-28T17:17:37.846Z,7.70
2023-04-28T17:20:06.360Z,4.50
2023-04-28T17:22:35.369Z,5.00
2023-04-28T17:25:03.802Z,4.60
2023-04-28T17:27:31.844Z,7.50
2023-04-28T17:29:59.713Z,5.50
2023-04-28T17:32:30.748Z,4.70
2023-04-28T17:34:58.933Z,4.60
2023-04-28T17:37:26.719Z,6.80
2023-04-28T17:39:54.457Z,4.90
2023-04-28T17:42:22.279Z,4.10
2023-04-28T17:44:50.923Z,5.40
2023-04-28T17:47:19.438Z,5.50
2023-04-28T17:49:47.149Z,7.10
2023-04-28T17:52:15.526Z,5.20
2023-04-28T17:54:43.885Z,4.60
2023-04-28T17:57:12.436Z,4.80
2023-04-28T17:59:40.701Z,4.90
2023-04-28T18:02:11.920Z,6.10
2023-04-28T18:04:40.176Z,5.10
2023-04-28T18:07:08.268Z,5.70
2023-04-28T18:09:36.061Z,6.80
2023-04-28T18:12:07.137Z,6.20
2023-04-28T18:14:35.049Z,9.10
2023-04-28T18:17:03.011Z,6.40
2023-04-28T18:19:31.065Z,6.00
2023-04-28T18:21:59.046Z,5.40
2023-04-28T18:24:26.808Z,6.00
2023-04-28T18:26:54.712Z,6.50
2023-04-28T18:29:22.604Z,10.10
2023-04-28T18:31:51.487Z,8.70
2023-04-28T18:34:19.936Z,7.00
2023-04-28T18:36:47.734Z,8.80
2023-04-28T18:39:15.654Z,10.90
2023-04-28T18:41:44.220Z,8.90
2023-04-28T18:44:12.005Z,9.40
2023-04-28T18:46:40.193Z,9.80
2023-04-28T18:49:07.972Z,7.80
2023-04-28T18:51:36.040Z,8.60
2023-04-28T18:54:04.843Z,10.70
2023-04-28T18:56:32.656Z,8.50
2023-04-28T18:59:00.621Z,10.40
2023-04-28T19:01:28.579Z,8.20
2023-04-28T19:03:56.789Z,8.20
2023-04-28T19:06:24.950Z,10.20
2023-04-28T19:08:53.262Z,8.10
2023-04-28T19:11:21.268Z,10.20
2023-04-28T19:13:50.279Z,15.20
2023-04-28T19:16:18.654Z,10.70
2023-04-28T19:18:46.503Z,14.80
2023-04-28T19:21:14.410Z,10.70
2023-04-28T19:23:42.324Z,14.10
2023-04-28T19:26:10.454Z,13.90
2023-04-28T19:28:38.294Z,12.70
2023-04-28T19:31:06.120Z,18.70
2023-04-28T19:33:33.883Z,13.70
2023-04-28T19:36:01.682Z,15.80
2023-04-28T19:38:29.513Z,17.10
2023-04-28T19:41:01.162Z,12.20
2023-04-28T19:43:29.883Z,14.60
2023-04-28T19:45:57.983Z,16.70
2023-04-28T19:48:28.780Z,20.90
2023-04-28T19:50:57.322Z,15.60
2023-04-28T19:53:25.116Z,17.50
2023-04-28T19:55:53.143Z,15.30
2023-04-28T19:58:22.295Z,17.40
2023-04-28T20:00:50.071Z,28.30
2023-04-28T20:03:18.087Z,34.20
2023-04-28T20:05:46.017Z,31.90
2023-04-28T20:08:13.969Z,27.00
2023-04-28T20:10:42.470Z,29.70
2023-04-28T20:13:10.161Z,19.10
2023-04-28T20:15:38.050Z,26.20
2023-04-28T20:18:06.211Z,21.10
2023-04-28T20:20:34.317Z,29.30
2023-04-28T20:23:02.154Z,24.20
2023-04-28T20:25:30.036Z,22.30
2023-04-28T20:27:58.197Z,18.40
2023-04-28T20:30:27.753Z,23.40
2023-04-28T20:35:23.341Z,23.30
2023-04-28T20:37:51.121Z,18.40
2023-04-28T20:40:18.908Z,25.90
2023-04-28T20:42:46.621Z,27.10
2023-04-28T20:45:14.394Z,27.80
2023-04-28T20:47:42.487Z,27.40
2023-04-28T20:50:11.589Z,27.90
2023-04-28T20:52:39.452Z,30.10
2023-04-28T20:55:08.525Z,25.60
2023-04-28T20:57:36.224Z,25.20
2023-04-28T21:00:05.279Z,22.90
2023-04-28T21:02:33.340Z,23.80
2023-04-28T21:05:01.743Z,20.40
2023-04-28T21:07:29.545Z,18.00
2023-04-28T21:09:58.091Z,20.00
2023-04-28T21:12:25.948Z,15.00
2023-04-28T21:14:53.770Z,13.20
2023-04-28T21:17:21.471Z,11.80
2023-04-28T21:19:49.475Z,13.10
2023-04-28T21:22:17.570Z,12.00
2023-04-28T21:24:45.290Z,12.50
2023-04-28T21:27:13.054Z,10.90
2023-04-28T21:29:40.897Z,11.60
2023-04-28T21:32:09.309Z,13.20
2023-04-28T21:34:37.355Z,9.50
2023-04-28T21:37:05.714Z,11.40
2023-04-28T21:39:33.939Z,8.60
2023-04-28T21:42:01.830Z,9.30
2023-04-28T21:44:29.944Z,8.20
2023-04-28T21:46:57.841Z,8.50
2023-04-28T21:49:25.988Z,9.20
2023-04-28T21:51:53.776Z,10.80
2023-04-28T21:54:21.652Z,9.50
2023-04-28T21:56:49.664Z,8.90
2023-04-28T21:59:18.072Z,10.70
2023-04-28T22:01:46.506Z,12.20
2023-04-28T22:04:15.120Z,9.10
2023-04-28T22:06:44.993Z,8.10
2023-04-28T22:09:13.660Z,9.50
2023-04-28T22:11:41.575Z,9.20
2023-04-28T22:14:11.990Z,9.00
2023-04-28T22:16:43.129Z,10.10
2023-04-28T22:19:11.467Z,10.60
2023-04-28T22:21:39.778Z,10.40
2023-04-28T22:24:08.269Z,9.40
2023-04-28T22:26:36.598Z,9.60
2023-04-28T22:29:04.336Z,9.10
2023-04-28T22:31:32.363Z,7.10
2023-04-28T22:34:00.080Z,7.90
2023-04-28T22:36:28.207Z,7.40
2023-04-28T22:38:56.160Z,8.70
2023-04-28T22:41:24.589Z,7.90
2023-04-28T22:43:53.441Z,8.00
2023-04-28T22:46:21.182Z,8.00
2023-04-28T22:48:49.892Z,6.60
2023-04-28T22:51:17.642Z,11.40
2023-04-28T22:53:46.738Z,11.60
2023-04-28T22:56:16.131Z,9.60
2023-04-28T22:58:44.785Z,10.10
2023-04-28T23:01:12.706Z,9.60
2023-04-28T23:03:41.663Z,8.90
2023-04-28T23:06:09.669Z,7.20
2023-04-28T23:08:37.504Z,8.30
2023-04-28T23:11:06.803Z,8.30
2023-04-28T23:13:34.910Z,8.00
2023-04-28T23:16:02.707Z,6.70
2023-04-28T23:18:32.761Z,7.60
2023-04-28T23:21:00.642Z,7.60
2023-04-28T23:23:28.387Z,7.20
2023-04-28T23:25:56.835Z,8.00
2023-04-28T23:28:24.727Z,10.70
2023-04-28T23:30:52.493Z,10.00
2023-04-28T23:33:20.322Z,7.50
2023-04-28T23:35:48.259Z,8.50
2023-04-28T23:38:16.866Z,11.10
2023-04-28T23:40:44.634Z,8.50
2023-04-28T23:43:14.678Z,7.60
2023-04-28T23:45:42.790Z,9.60
2023-04-28T23:48:11.147Z,13.10
2023-04-28T23:50:38.934Z,8.30
2023-04-28T23:53:06.758Z,7.50
2023-04-28T23:55:34.479Z,8.80
2023-04-28T23:58:02.180Z,11.60
